sensor_id;sensor_type;location;lat;lon;timestamp;P1;durP1;ratioP1;P2;durP2;ratioP2
70270;SDS011;57680;54.292;18.598;2023-04-24T00:00:01;39.77;;;19.07;;
70270;SDS011;57680;54.292;18.598;2023-04-24T00:02:29;42.58;;;20.60;;
70270;SDS011;57680;54.292;18.598;2023-04-24T00:04:54;40.27;;;19.20;;
70270;SDS011;57680;54.292;18.598;2023-04-24T00:07:19;40.30;;;19.67;;
70270;SDS011;57680;54.292;18.598;2023-04-24T00:09:45;41.70;;;18.97;;
70270;SDS011;57680;54.292;18.598;2023-04-24T00:12:10;42.53;;;19.10;;
70270;SDS011;57680;54.292;18.598;2023-04-24T00:14:36;40.38;;;18.58;;
70270;SDS011;57680;54.292;18.598;2023-04-24T00:17:02;41.07;;;19.30;;
70270;SDS011;57680;54.292;18.598;2023-04-24T00:19:28;38.63;;;18.05;;
70270;SDS011;57680;54.292;18.598;2023-04-24T00:21:54;37.33;;;17.47;;
70270;SDS011;57680;54.292;18.598;2023-04-24T00:24:19;39.03;;;18.67;;
70270;SDS011;57680;54.292;18.598;2023-04-24T00:26:45;39.03;;;17.98;;
70270;SDS011;57680;54.292;18.598;2023-04-24T00:29:10;36.87;;;17.97;;
70270;SDS011;57680;54.292;18.598;2023-04-24T00:31:36;36.57;;;18.37;;
70270;SDS011;57680;54.292;18.598;2023-04-24T00:34:02;38.88;;;18.08;;
70270;SDS011;57680;54.292;18.598;2023-04-24T00:36:28;39.00;;;17.53;;
70270;SDS011;57680;54.292;18.598;2023-04-24T00:38:54;35.97;;;17.42;;
70270;SDS011;57680;54.292;18.598;2023-04-24T00:41:20;34.67;;;16.43;;
70270;SDS011;57680;54.292;18.598;2023-04-24T00:43:46;34.08;;;16.98;;
70270;SDS011;57680;54.292;18.598;2023-04-24T00:46:12;35.73;;;17.30;;
70270;SDS011;57680;54.292;18.598;2023-04-24T00:48:40;36.40;;;18.38;;
70270;SDS011;57680;54.292;18.598;2023-04-24T00:51:06;32.95;;;15.98;;
70270;SDS011;57680;54.292;18.598;2023-04-24T00:53:31;36.70;;;17.43;;
70270;SDS011;57680;54.292;18.598;2023-04-24T00:55:57;38.70;;;17.30;;
70270;SDS011;57680;54.292;18.598;2023-04-24T00:58:23;38.07;;;17.67;;
70270;SDS011;57680;54.292;18.598;2023-04-24T01:00:48;40.38;;;17.77;;
70270;SDS011;57680;54.292;18.598;2023-04-24T01:03:15;40.28;;;17.58;;
70270;SDS011;57680;54.292;18.598;2023-04-24T01:05:40;42.20;;;17.60;;
70270;SDS011;57680;54.292;18.598;2023-04-24T01:08:06;43.10;;;17.48;;
70270;SDS011;57680;54.292;18.598;2023-04-24T01:10:32;44.00;;;16.97;;
70270;SDS011;57680;54.292;18.598;2023-04-24T01:12:59;43.45;;;17.58;;
70270;SDS011;57680;54.292;18.598;2023-04-24T01:15:25;46.10;;;17.63;;
70270;SDS011;57680;54.292;18.598;2023-04-24T01:17:50;47.60;;;18.93;;
70270;SDS011;57680;54.292;18.598;2023-04-24T01:20:16;43.53;;;18.87;;
70270;SDS011;57680;54.292;18.598;2023-04-24T01:22:42;47.58;;;19.17;;
70270;SDS011;57680;54.292;18.598;2023-04-24T01:25:08;45.67;;;19.10;;
70270;SDS011;57680;54.292;18.598;2023-04-24T01:27:33;50.33;;;19.83;;
70270;SDS011;57680;54.292;18.598;2023-04-24T01:29:59;52.03;;;19.70;;
70270;SDS011;57680;54.292;18.598;2023-04-24T01:32:25;50.00;;;19.08;;
70270;SDS011;57680;54.292;18.598;2023-04-24T01:34:51;47.77;;;18.43;;
70270;SDS011;57680;54.292;18.598;2023-04-24T01:37:17;47.10;;;19.08;;
70270;SDS011;57680;54.292;18.598;2023-04-24T01:39:43;47.17;;;18.40;;
70270;SDS011;57680;54.292;18.598;2023-04-24T01:42:08;47.38;;;19.52;;
70270;SDS011;57680;54.292;18.598;2023-04-24T01:44:34;46.30;;;17.97;;
70270;SDS011;57680;54.292;18.598;2023-04-24T01:47:00;48.63;;;18.80;;
70270;SDS011;57680;54.292;18.598;2023-04-24T01:49:26;49.78;;;18.95;;
70270;SDS011;57680;54.292;18.598;2023-04-24T01:51:52;46.93;;;19.90;;
70270;SDS011;57680;54.292;18.598;2023-04-24T01:54:17;47.97;;;18.17;;
70270;SDS011;57680;54.292;18.598;2023-04-24T01:56:43;45.80;;;18.13;;
70270;SDS011;57680;54.292;18.598;2023-04-24T01:59:09;46.88;;;18.05;;
70270;SDS011;57680;54.292;18.598;2023-04-24T02:01:35;46.40;;;17.93;;
70270;SDS011;57680;54.292;18.598;2023-04-24T02:04:01;44.78;;;17.38;;
70270;SDS011;57680;54.292;18.598;2023-04-24T02:06:27;47.40;;;17.98;;
70270;SDS011;57680;54.292;18.598;2023-04-24T02:08:53;46.17;;;17.70;;
70270;SDS011;57680;54.292;18.598;2023-04-24T02:11:18;47.00;;;17.83;;
70270;SDS011;57680;54.292;18.598;2023-04-24T02:13:44;46.07;;;17.53;;
70270;SDS011;57680;54.292;18.598;2023-04-24T02:16:09;48.07;;;17.37;;
70270;SDS011;57680;54.292;18.598;2023-04-24T02:18:35;52.97;;;19.03;;
70270;SDS011;57680;54.292;18.598;2023-04-24T02:21:00;42.85;;;16.13;;
70270;SDS011;57680;54.292;18.598;2023-04-24T02:23:26;44.93;;;16.33;;
70270;SDS011;57680;54.292;18.598;2023-04-24T02:25:52;44.75;;;16.48;;
70270;SDS011;57680;54.292;18.598;2023-04-24T02:28:18;43.93;;;16.70;;
70270;SDS011;57680;54.292;18.598;2023-04-24T02:30:44;42.35;;;15.75;;
70270;SDS011;57680;54.292;18.598;2023-04-24T02:33:09;40.77;;;14.93;;
70270;SDS011;57680;54.292;18.598;2023-04-24T02:35:36;40.97;;;15.55;;
70270;SDS011;57680;54.292;18.598;2023-04-24T02:38:01;41.23;;;15.50;;
70270;SDS011;57680;54.292;18.598;2023-04-24T02:40:27;37.85;;;14.60;;
70270;SDS011;57680;54.292;18.598;2023-04-24T02:42:52;43.40;;;15.37;;
70270;SDS011;57680;54.292;18.598;2023-04-24T02:45:18;40.97;;;14.97;;
70270;SDS011;57680;54.292;18.598;2023-04-24T02:47:43;42.10;;;15.60;;
70270;SDS011;57680;54.292;18.598;2023-04-24T02:50:09;42.10;;;15.50;;
70270;SDS011;57680;54.292;18.598;2023-04-24T02:52:35;42.20;;;15.57;;
70270;SDS011;57680;54.292;18.598;2023-04-24T02:55:00;42.23;;;15.57;;
70270;SDS011;57680;54.292;18.598;2023-04-24T02:57:26;36.47;;;14.68;;
70270;SDS011;57680;54.292;18.598;2023-04-24T02:59:51;35.40;;;14.03;;
70270;SDS011;57680;54.292;18.598;2023-04-24T03:02:17;36.70;;;14.37;;
70270;SDS011;57680;54.292;18.598;2023-04-24T03:04:42;36.58;;;13.55;;
70270;SDS011;57680;54.292;18.598;2023-04-24T03:07:08;38.10;;;14.43;;
70270;SDS011;57680;54.292;18.598;2023-04-24T03:09:33;36.08;;;14.25;;
70270;SDS011;57680;54.292;18.598;2023-04-24T03:11:59;37.90;;;14.07;;
70270;SDS011;57680;54.292;18.598;2023-04-24T03:14:24;37.70;;;13.77;;
70270;SDS011;57680;54.292;18.598;2023-04-24T03:16:49;35.47;;;13.33;;
70270;SDS011;57680;54.292;18.598;2023-04-24T03:19:15;37.77;;;13.50;;
70270;SDS011;57680;54.292;18.598;2023-04-24T03:21:40;36.15;;;14.45;;
70270;SDS011;57680;54.292;18.598;2023-04-24T03:24:07;36.67;;;14.03;;
70270;SDS011;57680;54.292;18.598;2023-04-24T03:26:32;38.20;;;14.35;;
70270;SDS011;57680;54.292;18.598;2023-04-24T03:28:58;41.53;;;14.80;;
70270;SDS011;57680;54.292;18.598;2023-04-24T03:31:23;36.27;;;13.73;;
70270;SDS011;57680;54.292;18.598;2023-04-24T03:33:49;37.35;;;13.20;;
70270;SDS011;57680;54.292;18.598;2023-04-24T03:36:14;36.47;;;13.27;;
70270;SDS011;57680;54.292;18.598;2023-04-24T03:38:39;33.73;;;13.07;;
70270;SDS011;57680;54.292;18.598;2023-04-24T03:41:06;31.63;;;12.38;;
70270;SDS011;57680;54.292;18.598;2023-04-24T03:43:31;40.03;;;13.03;;
70270;SDS011;57680;54.292;18.598;2023-04-24T03:45:57;33.47;;;13.17;;
70270;SDS011;57680;54.292;18.598;2023-04-24T03:48:22;33.10;;;12.37;;
70270;SDS011;57680;54.292;18.598;2023-04-24T03:50:47;30.08;;;11.88;;
70270;SDS011;57680;54.292;18.598;2023-04-24T03:53:13;32.87;;;12.20;;
70270;SDS011;57680;54.292;18.598;2023-04-24T03:55:38;30.93;;;11.97;;
70270;SDS011;57680;54.292;18.598;2023-04-24T03:58:04;27.80;;;11.77;;
70270;SDS011;57680;54.292;18.598;2023-04-24T04:00:30;31.83;;;11.53;;
70270;SDS011;57680;54.292;18.598;2023-04-24T04:02:55;30.73;;;12.50;;
70270;SDS011;57680;54.292;18.598;2023-04-24T04:05:20;29.40;;;11.77;;
70270;SDS011;57680;54.292;18.598;2023-04-24T04:07:46;30.40;;;11.33;;
70270;SDS011;57680;54.292;18.598;2023-04-24T04:10:11;33.73;;;11.77;;
70270;SDS011;57680;54.292;18.598;2023-04-24T04:12:37;34.30;;;13.13;;
70270;SDS011;57680;54.292;18.598;2023-04-24T04:15:02;36.40;;;12.85;;
70270;SDS011;57680;54.292;18.598;2023-04-24T04:17:28;38.90;;;12.70;;
70270;SDS011;57680;54.292;18.598;2023-04-24T04:19:53;41.10;;;14.10;;
70270;SDS011;57680;54.292;18.598;2023-04-24T04:22:19;46.43;;;14.67;;
70270;SDS011;57680;54.292;18.598;2023-04-24T04:24:44;38.77;;;13.47;;
70270;SDS011;57680;54.292;18.598;2023-04-24T04:27:10;40.77;;;14.07;;
70270;SDS011;57680;54.292;18.598;2023-04-24T04:29:35;36.57;;;13.07;;
70270;SDS011;57680;54.292;18.598;2023-04-24T04:32:01;42.77;;;13.43;;
70270;SDS011;57680;54.292;18.598;2023-04-24T04:34:26;43.37;;;13.83;;
70270;SDS011;57680;54.292;18.598;2023-04-24T04:36:52;40.20;;;14.50;;
70270;SDS011;57680;54.292;18.598;2023-04-24T04:39:18;43.97;;;12.97;;
70270;SDS011;57680;54.292;18.598;2023-04-24T04:41:43;44.43;;;13.17;;
70270;SDS011;57680;54.292;18.598;2023-04-24T04:44:09;43.17;;;14.00;;
70270;SDS011;57680;54.292;18.598;2023-04-24T04:46:34;37.23;;;13.53;;
70270;SDS011;57680;54.292;18.598;2023-04-24T04:49:00;36.93;;;13.77;;
70270;SDS011;57680;54.292;18.598;2023-04-24T04:51:27;39.80;;;13.68;;
70270;SDS011;57680;54.292;18.598;2023-04-24T04:53:52;38.27;;;14.00;;
70270;SDS011;57680;54.292;18.598;2023-04-24T04:56:18;35.67;;;13.13;;
70270;SDS011;57680;54.292;18.598;2023-04-24T04:58:44;38.90;;;13.43;;
70270;SDS011;57680;54.292;18.598;2023-04-24T05:01:10;35.33;;;12.80;;
70270;SDS011;57680;54.292;18.598;2023-04-24T05:03:35;39.53;;;14.03;;
70270;SDS011;57680;54.292;18.598;2023-04-24T05:06:00;38.33;;;14.13;;
70270;SDS011;57680;54.292;18.598;2023-04-24T05:08:26;38.57;;;14.20;;
70270;SDS011;57680;54.292;18.598;2023-04-24T05:10:51;36.07;;;13.67;;
70270;SDS011;57680;54.292;18.598;2023-04-24T05:13:16;37.28;;;13.52;;
70270;SDS011;57680;54.292;18.598;2023-04-24T05:15:42;35.13;;;13.30;;
70270;SDS011;57680;54.292;18.598;2023-04-24T05:18:07;35.23;;;13.77;;
70270;SDS011;57680;54.292;18.598;2023-04-24T05:20:33;29.10;;;11.40;;
70270;SDS011;57680;54.292;18.598;2023-04-24T05:22:58;30.00;;;10.97;;
70270;SDS011;57680;54.292;18.598;2023-04-24T05:25:23;26.60;;;11.57;;
70270;SDS011;57680;54.292;18.598;2023-04-24T05:27:49;32.17;;;11.63;;
70270;SDS011;57680;54.292;18.598;2023-04-24T05:30:14;29.40;;;11.63;;
70270;SDS011;57680;54.292;18.598;2023-04-24T05:32:40;28.90;;;11.07;;
70270;SDS011;57680;54.292;18.598;2023-04-24T05:35:05;29.02;;;12.00;;
70270;SDS011;57680;54.292;18.598;2023-04-24T05:37:31;28.83;;;11.83;;
70270;SDS011;57680;54.292;18.598;2023-04-24T05:39:56;29.23;;;11.20;;
70270;SDS011;57680;54.292;18.598;2023-04-24T05:42:22;22.38;;;9.77;;
70270;SDS011;57680;54.292;18.598;2023-04-24T05:44:47;26.07;;;10.63;;
70270;SDS011;57680;54.292;18.598;2023-04-24T05:47:12;28.27;;;10.70;;
70270;SDS011;57680;54.292;18.598;2023-04-24T05:49:38;25.53;;;10.57;;
70270;SDS011;57680;54.292;18.598;2023-04-24T05:52:04;25.17;;;10.73;;
70270;SDS011;57680;54.292;18.598;2023-04-24T05:54:29;24.17;;;10.57;;
70270;SDS011;57680;54.292;18.598;2023-04-24T05:56:54;27.10;;;10.87;;
70270;SDS011;57680;54.292;18.598;2023-04-24T05:59:20;21.47;;;9.90;;
70270;SDS011;57680;54.292;18.598;2023-04-24T06:01:45;21.65;;;9.57;;
70270;SDS011;57680;54.292;18.598;2023-04-24T06:04:11;22.30;;;9.50;;
70270;SDS011;57680;54.292;18.598;2023-04-24T06:06:37;25.40;;;10.65;;
70270;SDS011;57680;54.292;18.598;2023-04-24T06:09:02;25.13;;;10.70;;
70270;SDS011;57680;54.292;18.598;2023-04-24T06:11:28;26.83;;;11.20;;
70270;SDS011;57680;54.292;18.598;2023-04-24T06:13:53;27.10;;;10.90;;
70270;SDS011;57680;54.292;18.598;2023-04-24T06:16:19;27.17;;;10.55;;
70270;SDS011;57680;54.292;18.598;2023-04-24T06:18:44;22.67;;;10.10;;
70270;SDS011;57680;54.292;18.598;2023-04-24T06:21:10;27.03;;;10.63;;
70270;SDS011;57680;54.292;18.598;2023-04-24T06:23:35;28.87;;;10.97;;
70270;SDS011;57680;54.292;18.598;2023-04-24T06:26:00;26.25;;;10.90;;
70270;SDS011;57680;54.292;18.598;2023-04-24T06:28:26;26.97;;;10.40;;
70270;SDS011;57680;54.292;18.598;2023-04-24T06:30:51;26.27;;;10.63;;
70270;SDS011;57680;54.292;18.598;2023-04-24T06:33:17;27.80;;;10.60;;
70270;SDS011;57680;54.292;18.598;2023-04-24T06:35:42;24.08;;;10.63;;
70270;SDS011;57680;54.292;18.598;2023-04-24T06:38:08;27.13;;;11.43;;
70270;SDS011;57680;54.292;18.598;2023-04-24T06:40:33;28.60;;;11.00;;
70270;SDS011;57680;54.292;18.598;2023-04-24T06:42:59;25.17;;;10.48;;
70270;SDS011;57680;54.292;18.598;2023-04-24T06:45:24;24.10;;;10.57;;
70270;SDS011;57680;54.292;18.598;2023-04-24T06:47:50;26.63;;;10.80;;
70270;SDS011;57680;54.292;18.598;2023-04-24T06:50:15;26.20;;;11.10;;
70270;SDS011;57680;54.292;18.598;2023-04-24T06:52:41;29.48;;;11.85;;
70270;SDS011;57680;54.292;18.598;2023-04-24T06:55:06;28.20;;;12.13;;
70270;SDS011;57680;54.292;18.598;2023-04-24T06:57:32;29.77;;;12.23;;
70270;SDS011;57680;54.292;18.598;2023-04-24T06:59:58;28.48;;;11.93;;
70270;SDS011;57680;54.292;18.598;2023-04-24T07:02:23;30.10;;;12.13;;
70270;SDS011;57680;54.292;18.598;2023-04-24T07:04:49;26.98;;;12.07;;
70270;SDS011;57680;54.292;18.598;2023-04-24T07:07:15;32.17;;;11.83;;
70270;SDS011;57680;54.292;18.598;2023-04-24T07:09:40;29.63;;;11.90;;
70270;SDS011;57680;54.292;18.598;2023-04-24T07:12:06;28.00;;;11.90;;
70270;SDS011;57680;54.292;18.598;2023-04-24T07:14:31;26.60;;;10.85;;
70270;SDS011;57680;54.292;18.598;2023-04-24T07:16:57;31.00;;;11.13;;
70270;SDS011;57680;54.292;18.598;2023-04-24T07:19:22;27.30;;;10.87;;
70270;SDS011;57680;54.292;18.598;2023-04-24T07:21:48;28.08;;;10.95;;
70270;SDS011;57680;54.292;18.598;2023-04-24T07:24:13;25.30;;;10.37;;
70270;SDS011;57680;54.292;18.598;2023-04-24T07:26:38;24.80;;;10.20;;
70270;SDS011;57680;54.292;18.598;2023-04-24T07:29:04;24.10;;;9.50;;
70270;SDS011;57680;54.292;18.598;2023-04-24T07:31:30;25.98;;;10.52;;
70270;SDS011;57680;54.292;18.598;2023-04-24T07:33:55;23.57;;;9.80;;
70270;SDS011;57680;54.292;18.598;2023-04-24T07:36:20;26.90;;;10.33;;
70270;SDS011;57680;54.292;18.598;2023-04-24T07:38:46;26.27;;;10.50;;
70270;SDS011;57680;54.292;18.598;2023-04-24T07:41:12;25.85;;;10.43;;
70270;SDS011;57680;54.292;18.598;2023-04-24T07:43:38;27.53;;;10.90;;
70270;SDS011;57680;54.292;18.598;2023-04-24T07:46:03;24.02;;;10.10;;
70270;SDS011;57680;54.292;18.598;2023-04-24T07:48:29;24.13;;;9.90;;
70270;SDS011;57680;54.292;18.598;2023-04-24T08:00:08;22.88;;;9.57;;
70270;SDS011;57680;54.292;18.598;2023-04-24T08:02:34;23.85;;;9.65;;
70270;SDS011;57680;54.292;18.598;2023-04-24T08:05:00;21.10;;;8.43;;
70270;SDS011;57680;54.292;18.598;2023-04-24T08:07:25;20.80;;;9.00;;
70270;SDS011;57680;54.292;18.598;2023-04-24T08:09:51;23.55;;;10.23;;
70270;SDS011;57680;54.292;18.598;2023-04-24T08:12:16;21.30;;;8.80;;
70270;SDS011;57680;54.292;18.598;2023-04-24T08:14:41;19.77;;;9.37;;
70270;SDS011;57680;54.292;18.598;2023-04-24T08:17:07;21.83;;;9.53;;
70270;SDS011;57680;54.292;18.598;2023-04-24T08:19:32;22.90;;;11.03;;
70270;SDS011;57680;54.292;18.598;2023-04-24T08:21:58;22.17;;;10.60;;
70270;SDS011;57680;54.292;18.598;2023-04-24T08:24:23;21.90;;;10.40;;
70270;SDS011;57680;54.292;18.598;2023-04-24T08:26:49;22.73;;;10.47;;
70270;SDS011;57680;54.292;18.598;2023-04-24T08:29:14;22.75;;;10.57;;
70270;SDS011;57680;54.292;18.598;2023-04-24T08:31:40;24.53;;;11.30;;
70270;SDS011;57680;54.292;18.598;2023-04-24T08:34:05;23.80;;;11.80;;
70270;SDS011;57680;54.292;18.598;2023-04-24T08:36:31;23.55;;;10.75;;
70270;SDS011;57680;54.292;18.598;2023-04-24T08:38:56;21.07;;;10.37;;
70270;SDS011;57680;54.292;18.598;2023-04-24T08:41:23;21.90;;;11.13;;
70270;SDS011;57680;54.292;18.598;2023-04-24T08:43:49;23.63;;;11.43;;
70270;SDS011;57680;54.292;18.598;2023-04-24T08:46:16;27.02;;;11.50;;
70270;SDS011;57680;54.292;18.598;2023-04-24T08:48:41;24.47;;;12.37;;
70270;SDS011;57680;54.292;18.598;2023-04-24T08:51:07;23.73;;;11.50;;
70270;SDS011;57680;54.292;18.598;2023-04-24T08:53:33;24.10;;;12.13;;
70270;SDS011;57680;54.292;18.598;2023-04-24T08:56:00;25.88;;;12.75;;
70270;SDS011;57680;54.292;18.598;2023-04-24T08:58:26;26.33;;;12.77;;
70270;SDS011;57680;54.292;18.598;2023-04-24T09:00:55;26.77;;;12.75;;
70270;SDS011;57680;54.292;18.598;2023-04-24T09:03:22;25.10;;;11.88;;
70270;SDS011;57680;54.292;18.598;2023-04-24T09:05:48;25.83;;;12.70;;
70270;SDS011;57680;54.292;18.598;2023-04-24T09:08:14;26.10;;;13.07;;
70270;SDS011;57680;54.292;18.598;2023-04-24T09:10:42;24.85;;;13.40;;
70270;SDS011;57680;54.292;18.598;2023-04-24T09:13:07;24.83;;;13.57;;
70270;SDS011;57680;54.292;18.598;2023-04-24T09:15:33;28.63;;;14.10;;
70270;SDS011;57680;54.292;18.598;2023-04-24T09:17:58;26.97;;;13.53;;
70270;SDS011;57680;54.292;18.598;2023-04-24T09:20:23;26.98;;;14.43;;
70270;SDS011;57680;54.292;18.598;2023-04-24T09:22:52;31.57;;;13.83;;
70270;SDS011;57680;54.292;18.598;2023-04-24T09:25:19;29.88;;;14.93;;
70270;SDS011;57680;54.292;18.598;2023-04-24T09:27:44;28.57;;;15.17;;
70270;SDS011;57680;54.292;18.598;2023-04-24T09:30:10;31.08;;;14.75;;
70270;SDS011;57680;54.292;18.598;2023-04-24T09:32:36;29.23;;;14.50;;
70270;SDS011;57680;54.292;18.598;2023-04-24T09:35:09;30.60;;;15.07;;
70270;SDS011;57680;54.292;18.598;2023-04-24T09:37:35;29.77;;;14.70;;
70270;SDS011;57680;54.292;18.598;2023-04-24T09:40:18;30.77;;;15.57;;
70270;SDS011;57680;54.292;18.598;2023-04-24T09:42:52;31.20;;;15.43;;
70270;SDS011;57680;54.292;18.598;2023-04-24T09:45:18;30.35;;;15.20;;
70270;SDS011;57680;54.292;18.598;2023-04-24T09:47:44;33.63;;;16.20;;
70270;SDS011;57680;54.292;18.598;2023-04-24T09:50:10;28.97;;;15.03;;
70270;SDS011;57680;54.292;18.598;2023-04-24T09:52:39;30.70;;;14.40;;
70270;SDS011;57680;54.292;18.598;2023-04-24T09:55:10;31.42;;;15.27;;
70270;SDS011;57680;54.292;18.598;2023-04-24T09:57:40;31.60;;;15.70;;
70270;SDS011;57680;54.292;18.598;2023-04-24T10:00:21;32.40;;;15.15;;
70270;SDS011;57680;54.292;18.598;2023-04-24T10:02:53;30.50;;;15.02;;
70270;SDS011;57680;54.292;18.598;2023-04-24T10:05:23;28.63;;;15.17;;
70270;SDS011;57680;54.292;18.598;2023-04-24T10:07:49;29.50;;;14.93;;
70270;SDS011;57680;54.292;18.598;2023-04-24T10:10:15;29.50;;;14.60;;
70270;SDS011;57680;54.292;18.598;2023-04-24T10:12:41;30.57;;;15.07;;
70270;SDS011;57680;54.292;18.598;2023-04-24T10:15:07;29.20;;;14.55;;
70270;SDS011;57680;54.292;18.598;2023-04-24T10:17:35;25.80;;;14.07;;
70270;SDS011;57680;54.292;18.598;2023-04-24T10:20:01;30.60;;;14.80;;
70270;SDS011;57680;54.292;18.598;2023-04-24T10:22:27;27.40;;;14.70;;
70270;SDS011;57680;54.292;18.598;2023-04-24T10:24:54;29.27;;;14.57;;
70270;SDS011;57680;54.292;18.598;2023-04-24T10:27:19;28.90;;;15.25;;
70270;SDS011;57680;54.292;18.598;2023-04-24T10:29:46;27.47;;;14.63;;
70270;SDS011;57680;54.292;18.598;2023-04-24T10:32:12;27.00;;;14.95;;
70270;SDS011;57680;54.292;18.598;2023-04-24T10:34:37;30.20;;;14.70;;
70270;SDS011;57680;54.292;18.598;2023-04-24T10:37:03;25.88;;;14.20;;
70270;SDS011;57680;54.292;18.598;2023-04-24T10:39:28;27.70;;;14.50;;
70270;SDS011;57680;54.292;18.598;2023-04-24T10:41:55;27.43;;;14.50;;
70270;SDS011;57680;54.292;18.598;2023-04-24T10:44:20;26.00;;;15.00;;
70270;SDS011;57680;54.292;18.598;2023-04-24T10:46:47;26.10;;;15.00;;
70270;SDS011;57680;54.292;18.598;2023-04-24T10:49:18;25.75;;;14.70;;
70270;SDS011;57680;54.292;18.598;2023-04-24T10:51:53;27.67;;;14.80;;
70270;SDS011;57680;54.292;18.598;2023-04-24T10:54:23;26.98;;;14.70;;
70270;SDS011;57680;54.292;18.598;2023-04-24T10:56:52;25.17;;;14.13;;
70270;SDS011;57680;54.292;18.598;2023-04-24T10:59:38;24.45;;;13.48;;
70270;SDS011;57680;54.292;18.598;2023-04-24T11:02:03;24.30;;;14.23;;
70270;SDS011;57680;54.292;18.598;2023-04-24T11:04:32;24.27;;;14.52;;
70270;SDS011;57680;54.292;18.598;2023-04-24T11:06:58;26.27;;;13.63;;
70270;SDS011;57680;54.292;18.598;2023-04-24T11:09:26;26.23;;;14.07;;
70270;SDS011;57680;54.292;18.598;2023-04-24T11:11:53;25.85;;;14.77;;
70270;SDS011;57680;54.292;18.598;2023-04-24T11:14:31;25.40;;;14.55;;
70270;SDS011;57680;54.292;18.598;2023-04-24T11:17:35;24.25;;;13.90;;
70270;SDS011;57680;54.292;18.598;2023-04-24T11:20:07;25.50;;;14.17;;
70270;SDS011;57680;54.292;18.598;2023-04-24T11:22:35;24.60;;;14.32;;
70270;SDS011;57680;54.292;18.598;2023-04-24T11:25:02;23.67;;;13.50;;
70270;SDS011;57680;54.292;18.598;2023-04-24T11:27:29;22.40;;;13.20;;
70270;SDS011;57680;54.292;18.598;2023-04-24T11:32:28;21.87;;;11.87;;
70270;SDS011;57680;54.292;18.598;2023-04-24T11:35:23;17.77;;;10.17;;
70270;SDS011;57680;54.292;18.598;2023-04-24T11:37:48;15.13;;;8.02;;
70270;SDS011;57680;54.292;18.598;2023-04-24T11:40:16;12.80;;;7.13;;
70270;SDS011;57680;54.292;18.598;2023-04-24T11:42:43;12.00;;;7.28;;
70270;SDS011;57680;54.292;18.598;2023-04-24T11:45:10;11.57;;;6.70;;
70270;SDS011;57680;54.292;18.598;2023-04-24T11:47:37;12.53;;;6.90;;
70270;SDS011;57680;54.292;18.598;2023-04-24T11:50:05;12.10;;;6.85;;
70270;SDS011;57680;54.292;18.598;2023-04-24T11:52:33;12.07;;;6.55;;
70270;SDS011;57680;54.292;18.598;2023-04-24T11:55:01;11.13;;;6.35;;
70270;SDS011;57680;54.292;18.598;2023-04-24T11:57:27;11.10;;;6.80;;
70270;SDS011;57680;54.292;18.598;2023-04-24T11:59:53;10.27;;;6.07;;
70270;SDS011;57680;54.292;18.598;2023-04-24T12:04:47;9.38;;;5.88;;
70270;SDS011;57680;54.292;18.598;2023-04-24T12:07:12;9.73;;;5.80;;
70270;SDS011;57680;54.292;18.598;2023-04-24T12:09:41;11.17;;;6.40;;
70270;SDS011;57680;54.292;18.598;2023-04-24T12:12:16;14.55;;;5.70;;
70270;SDS011;57680;54.292;18.598;2023-04-24T12:14:43;9.88;;;5.88;;
70270;SDS011;57680;54.292;18.598;2023-04-24T12:17:22;9.57;;;5.70;;
70270;SDS011;57680;54.292;18.598;2023-04-24T12:19:49;9.82;;;5.55;;
70270;SDS011;57680;54.292;18.598;2023-04-24T12:22:14;11.03;;;5.80;;
70270;SDS011;57680;54.292;18.598;2023-04-24T12:24:56;11.13;;;6.10;;
70270;SDS011;57680;54.292;18.598;2023-04-24T12:27:22;10.73;;;6.05;;
70270;SDS011;57680;54.292;18.598;2023-04-24T12:29:57;10.13;;;5.60;;
70270;SDS011;57680;54.292;18.598;2023-04-24T12:32:28;10.65;;;5.30;;
70270;SDS011;57680;54.292;18.598;2023-04-24T12:34:54;7.80;;;5.00;;
70270;SDS011;57680;54.292;18.598;2023-04-24T12:37:20;7.90;;;4.93;;
70270;SDS011;57680;54.292;18.598;2023-04-24T12:42:49;10.80;;;5.28;;
70270;SDS011;57680;54.292;18.598;2023-04-24T12:45:16;11.18;;;5.00;;
70270;SDS011;57680;54.292;18.598;2023-04-24T12:47:44;9.83;;;5.20;;
70270;SDS011;57680;54.292;18.598;2023-04-24T12:50:11;9.68;;;5.70;;
70270;SDS011;57680;54.292;18.598;2023-04-24T12:52:38;10.02;;;4.95;;
70270;SDS011;57680;54.292;18.598;2023-04-24T12:55:05;7.35;;;4.70;;
70270;SDS011;57680;54.292;18.598;2023-04-24T12:57:31;8.13;;;4.70;;
70270;SDS011;57680;54.292;18.598;2023-04-24T12:59:57;9.00;;;4.63;;
70270;SDS011;57680;54.292;18.598;2023-04-24T13:02:24;8.07;;;5.30;;
70270;SDS011;57680;54.292;18.598;2023-04-24T13:04:52;8.75;;;5.10;;
70270;SDS011;57680;54.292;18.598;2023-04-24T13:07:17;9.73;;;4.88;;
70270;SDS011;57680;54.292;18.598;2023-04-24T13:09:43;8.67;;;5.03;;
70270;SDS011;57680;54.292;18.598;2023-04-24T13:12:09;10.23;;;5.18;;
70270;SDS011;57680;54.292;18.598;2023-04-24T13:14:35;8.57;;;5.03;;
70270;SDS011;57680;54.292;18.598;2023-04-24T13:17:01;9.38;;;5.28;;
70270;SDS011;57680;54.292;18.598;2023-04-24T13:19:27;7.57;;;4.43;;
70270;SDS011;57680;54.292;18.598;2023-04-24T13:21:53;10.50;;;4.80;;
70270;SDS011;57680;54.292;18.598;2023-04-24T13:24:20;8.47;;;5.03;;
70270;SDS011;57680;54.292;18.598;2023-04-24T13:26:45;7.90;;;4.70;;
70270;SDS011;57680;54.292;18.598;2023-04-24T13:29:10;8.37;;;4.40;;
70270;SDS011;57680;54.292;18.598;2023-04-24T13:31:36;7.63;;;4.50;;
70270;SDS011;57680;54.292;18.598;2023-04-24T13:34:02;7.27;;;4.40;;
70270;SDS011;57680;54.292;18.598;2023-04-24T13:36:27;8.25;;;4.60;;
70270;SDS011;57680;54.292;18.598;2023-04-24T13:38:53;8.20;;;4.40;;
70270;SDS011;57680;54.292;18.598;2023-04-24T13:41:18;8.00;;;4.70;;
70270;SDS011;57680;54.292;18.598;2023-04-24T13:43:44;10.82;;;4.70;;
70270;SDS011;57680;54.292;18.598;2023-04-24T13:46:09;8.30;;;4.43;;
70270;SDS011;57680;54.292;18.598;2023-04-24T13:48:34;8.63;;;5.00;;
70270;SDS011;57680;54.292;18.598;2023-04-24T13:51:00;10.00;;;4.87;;
70270;SDS011;57680;54.292;18.598;2023-04-24T13:53:25;8.20;;;4.87;;
70270;SDS011;57680;54.292;18.598;2023-04-24T13:55:50;8.07;;;4.55;;
70270;SDS011;57680;54.292;18.598;2023-04-24T13:58:16;9.40;;;5.00;;
70270;SDS011;57680;54.292;18.598;2023-04-24T14:00:41;9.83;;;5.40;;
70270;SDS011;57680;54.292;18.598;2023-04-24T14:03:07;10.13;;;5.23;;
70270;SDS011;57680;54.292;18.598;2023-04-24T14:05:32;8.90;;;5.20;;
70270;SDS011;57680;54.292;18.598;2023-04-24T14:07:57;9.50;;;5.20;;
70270;SDS011;57680;54.292;18.598;2023-04-24T14:10:23;9.77;;;5.30;;
70270;SDS011;57680;54.292;18.598;2023-04-24T14:12:48;8.80;;;5.40;;
70270;SDS011;57680;54.292;18.598;2023-04-24T14:15:13;9.80;;;5.37;;
70270;SDS011;57680;54.292;18.598;2023-04-24T14:17:39;11.60;;;5.57;;
70270;SDS011;57680;54.292;18.598;2023-04-24T14:20:05;7.85;;;5.10;;
70270;SDS011;57680;54.292;18.598;2023-04-24T14:22:30;9.45;;;5.47;;
70270;SDS011;57680;54.292;18.598;2023-04-24T14:24:56;14.13;;;5.73;;